createdAt,value
2023-01-19T00:00:25.117Z,51.185814
2023-01-19T00:01:25.037Z,51.185791
2023-01-19T00:02:25.058Z,51.185760
2023-01-19T00:03:25.036Z,51.185783
2023-01-19T00:04:25.002Z,51.185764
2023-01-19T00:05:24.993Z,51.185799
2023-01-19T00:06:25.038Z,51.185837
2023-01-19T00:07:25.007Z,51.185795
2023-01-19T00:08:25.012Z,51.185799
2023-01-19T00:09:24.984Z,51.185825
2023-01-19T00:10:24.958Z,51.185844
2023-01-19T00:11:24.974Z,51.185806
2023-01-19T00:12:24.947Z,51.185780
2023-01-19T00:13:24.948Z,51.185741
2023-01-19T00:14:24.963Z,51.185776
2023-01-19T00:15:24.917Z,51.185806
2023-01-19T00:16:25.012Z,51.185822
2023-01-19T00:17:24.915Z,51.185818
2023-01-19T00:18:24.913Z,51.185837
2023-01-19T00:19:24.928Z,51.185833
2023-01-19T00:20:24.911Z,51.185841
2023-01-19T00:21:24.916Z,51.185802
2023-01-19T00:22:24.892Z,51.185814
2023-01-19T00:23:24.886Z,51.185776
2023-01-19T00:24:24.870Z,51.185822
2023-01-19T00:25:24.869Z,51.185818
2023-01-19T00:26:24.898Z,51.185814
2023-01-19T00:27:24.901Z,51.185799
2023-01-19T00:28:24.865Z,51.185802
2023-01-19T00:29:24.847Z,51.185799
2023-01-19T00:30:24.838Z,51.185818
2023-01-19T00:31:24.940Z,51.185852
2023-01-19T00:32:24.837Z,51.185883
2023-01-19T00:33:24.838Z,51.185829
2023-01-19T00:34:24.825Z,51.185818
2023-01-19T00:35:24.834Z,51.185814
2023-01-19T00:36:24.822Z,51.185806
2023-01-19T00:37:24.799Z,51.185822
2023-01-19T00:38:24.809Z,51.185883
2023-01-19T00:39:24.772Z,51.185841
2023-01-19T00:40:24.803Z,51.185822
2023-01-19T00:41:24.793Z,51.185833
2023-01-19T00:42:24.762Z,51.185799
2023-01-19T00:43:24.766Z,51.185772
2023-01-19T00:44:24.759Z,51.185829
2023-01-19T00:45:24.803Z,51.185818
2023-01-19T00:46:24.754Z,51.185844
2023-01-19T00:47:24.735Z,51.185802
2023-01-19T00:48:24.737Z,51.185822
2023-01-19T00:49:24.736Z,51.185848
2023-01-19T00:50:24.724Z,51.185825
2023-01-19T00:51:24.720Z,51.185852
2023-01-19T00:52:24.714Z,51.185837
2023-01-19T00:53:24.713Z,51.185802
2023-01-19T00:54:26.885Z,51.185791
2023-01-19T00:55:24.694Z,51.185787
2023-01-19T00:56:24.702Z,51.185806
2023-01-19T00:57:24.680Z,51.185841
2023-01-19T00:58:24.685Z,51.185825
2023-01-19T00:59:24.665Z,51.185810
2023-01-19T01:00:24.665Z,51.185814
2023-01-19T01:01:45.429Z,51.185898
2023-01-19T01:02:25.825Z,51.185730
2023-01-19T01:03:24.688Z,51.185661
2023-01-19T01:04:24.619Z,51.185802
2023-01-19T01:05:24.652Z,51.185802
2023-01-19T01:06:24.613Z,51.185783
2023-01-19T01:07:24.648Z,51.185692
2023-01-19T01:08:24.608Z,51.185886
2023-01-19T01:09:24.602Z,51.185894
2023-01-19T01:10:24.627Z,51.185841
2023-01-19T01:11:24.616Z,51.185841
2023-01-19T01:12:24.595Z,51.185791
2023-01-19T01:13:27.308Z,51.185780
2023-01-19T01:14:24.566Z,51.185741
2023-01-19T01:15:24.590Z,51.185822
2023-01-19T01:16:24.584Z,51.185810
2023-01-19T01:17:24.542Z,51.185822
2023-01-19T01:18:24.551Z,51.185844
2023-01-19T01:19:24.530Z,51.185844
2023-01-19T01:20:24.558Z,51.185814
2023-01-19T01:21:24.544Z,51.185810
2023-01-19T01:22:24.518Z,51.185833
2023-01-19T01:23:24.558Z,51.185802
2023-01-19T01:24:24.512Z,51.185802
2023-01-19T01:25:24.525Z,51.185818
2023-01-19T01:26:26.976Z,51.185806
2023-01-19T01:27:24.514Z,51.185738
2023-01-19T01:28:24.478Z,51.185806
2023-01-19T01:29:24.471Z,51.185799
2023-01-19T01:30:24.477Z,51.185780
2023-01-19T01:31:24.547Z,51.185841
2023-01-19T01:32:24.435Z,51.185844
2023-01-19T01:33:41.075Z,51.185818
2023-01-19T01:34:25.426Z,51.185822
2023-01-19T01:35:24.454Z,51.185822
2023-01-19T01:36:24.430Z,51.185841
2023-01-19T01:37:24.431Z,51.185802
2023-01-19T01:38:24.399Z,51.185806
2023-01-19T01:39:24.451Z,51.185825
2023-01-19T01:40:24.401Z,51.185780
2023-01-19T01:41:25.533Z,51.185764
2023-01-19T01:42:24.413Z,51.185749
2023-01-19T01:43:24.376Z,51.185760
2023-01-19T01:44:24.364Z,51.185799
2023-01-19T01:45:24.378Z,51.185780
2023-01-19T01:46:24.362Z,51.185822
2023-01-19T01:47:24.365Z,51.185829
2023-01-19T01:48:24.391Z,51.185822
2023-01-19T01:49:24.337Z,51.185814
2023-01-19T01:50:24.357Z,51.185802
2023-01-19T01:51:24.367Z,51.185730
2023-01-19T01:52:24.314Z,51.185802
2023-01-19T01:53:24.327Z,51.185825
2023-01-19T01:54:24.310Z,51.185795
2023-01-19T01:55:24.327Z,51.185810
2023-01-19T01:56:24.294Z,51.185825
2023-01-19T01:57:24.321Z,51.185844
2023-01-19T01:58:24.282Z,51.185841
2023-01-19T01:59:24.290Z,51.185814
2023-01-19T02:00:24.277Z,51.185856
2023-01-19T02:01:24.390Z,51.185841
2023-01-19T02:02:24.277Z,51.185822
2023-01-19T02:03:24.341Z,51.185814
2023-01-19T02:04:24.264Z,51.185814
2023-01-19T02:05:24.255Z,51.185806
2023-01-19T02:06:24.247Z,51.185818
2023-01-19T02:07:24.244Z,51.185795
2023-01-19T02:08:24.229Z,51.185806
2023-01-19T02:09:24.232Z,51.185825
2023-01-19T02:10:24.216Z,51.185848
2023-01-19T02:11:24.234Z,51.185856
2023-01-19T02:12:24.212Z,51.185844
2023-01-19T02:13:24.178Z,51.185844
2023-01-19T02:14:24.193Z,51.185844
2023-01-19T02:15:24.181Z,51.185818
2023-01-19T02:16:24.230Z,51.185822
2023-01-19T02:17:24.160Z,51.185848
2023-01-19T02:18:24.149Z,51.185825
2023-01-19T02:19:24.158Z,51.185844
2023-01-19T02:20:24.148Z,51.185860
2023-01-19T02:21:24.243Z,51.185844
2023-01-19T02:22:24.143Z,51.185829
2023-01-19T02:23:24.105Z,51.185841
2023-01-19T02:24:24.117Z,51.185810
2023-01-19T02:25:24.106Z,51.185837
2023-01-19T02:26:24.121Z,51.185810
2023-01-19T02:27:24.124Z,51.185829
2023-01-19T02:28:24.215Z,51.185822
2023-01-19T02:29:24.084Z,51.185825
2023-01-19T02:30:24.157Z,51.185799
2023-01-19T02:31:24.080Z,51.185814
2023-01-19T02:32:24.068Z,51.185825
2023-01-19T02:33:24.056Z,51.185833
2023-01-19T02:34:24.087Z,51.185860
2023-01-19T02:35:24.028Z,51.185844
2023-01-19T02:36:24.039Z,51.185844
2023-01-19T02:37:24.045Z,51.185844
2023-01-19T02:38:24.023Z,51.185844
2023-01-19T02:39:24.010Z,51.185848
2023-01-19T02:40:24.047Z,51.185841
2023-01-19T02:41:23.990Z,51.185829
2023-01-19T02:42:23.992Z,51.185799
2023-01-19T02:43:24.017Z,51.185833
2023-01-19T02:44:23.997Z,51.185822
2023-01-19T02:45:23.991Z,51.185841
2023-01-19T02:46:24.022Z,51.185844
2023-01-19T02:47:23.971Z,51.185833
2023-01-19T02:48:23.947Z,51.185822
2023-01-19T02:49:23.955Z,51.185806
2023-01-19T02:50:23.948Z,51.185829
2023-01-19T02:51:23.940Z,51.185841
2023-01-19T02:52:23.940Z,51.185791
2023-01-19T02:53:23.943Z,51.185791
2023-01-19T02:54:23.939Z,51.185814
2023-01-19T02:55:23.894Z,51.185856
2023-01-19T02:56:23.899Z,51.185806
2023-01-19T02:57:23.902Z,51.185791
2023-01-19T02:58:23.921Z,51.185799
2023-01-19T02:59:23.916Z,51.185822
2023-01-19T03:00:23.891Z,51.185825
2023-01-19T03:01:24.081Z,51.185783
2023-01-19T03:02:23.946Z,51.185787
2023-01-19T03:03:23.867Z,51.185776
2023-01-19T03:04:23.869Z,51.185814
2023-01-19T03:05:23.853Z,51.185787
2023-01-19T03:06:23.954Z,51.185787
2023-01-19T03:07:24.672Z,51.185787
2023-01-19T03:08:23.841Z,51.185833
2023-01-19T03:09:23.845Z,51.185802
2023-01-19T03:10:23.818Z,51.185772
2023-01-19T03:11:23.819Z,51.185844
2023-01-19T03:12:23.841Z,51.185692
2023-01-19T03:13:23.840Z,51.185722
2023-01-19T03:14:23.811Z,51.185787
2023-01-19T03:15:23.809Z,51.185822
2023-01-19T03:16:23.876Z,51.185810
2023-01-19T03:17:23.776Z,51.185783
2023-01-19T03:18:23.767Z,51.185791
2023-01-19T03:19:23.792Z,51.185818
2023-01-19T03:20:23.767Z,51.185776
2023-01-19T03:21:23.749Z,51.185795
2023-01-19T03:22:23.753Z,51.185795
2023-01-19T03:23:23.735Z,51.185738
2023-01-19T03:24:23.732Z,51.185696
2023-01-19T03:25:23.763Z,51.185799
2023-01-19T03:26:23.731Z,51.185795
2023-01-19T03:27:23.726Z,51.185806
2023-01-19T03:28:23.719Z,51.185749
2023-01-19T03:29:23.690Z,51.185753
2023-01-19T03:30:23.700Z,51.185757
2023-01-19T03:31:23.828Z,51.185856
2023-01-19T03:32:23.716Z,51.185844
2023-01-19T03:33:23.691Z,51.185799
2023-01-19T03:34:23.683Z,51.185787
2023-01-19T03:35:23.668Z,51.185791
2023-01-19T03:36:23.659Z,51.185822
2023-01-19T03:37:23.669Z,51.185760
2023-01-19T03:38:23.646Z,51.185780
2023-01-19T03:39:23.651Z,51.185806
2023-01-19T03:40:23.707Z,51.185810
2023-01-19T03:41:23.620Z,51.185848
2023-01-19T03:42:23.633Z,51.185814
2023-01-19T03:43:23.608Z,51.185802
2023-01-19T03:44:23.620Z,51.185829
2023-01-19T03:45:23.633Z,51.185822
2023-01-19T03:46:23.708Z,51.185844
2023-01-19T03:47:23.605Z,51.185768
2023-01-19T03:48:23.580Z,51.185738
2023-01-19T03:49:23.581Z,51.185806
2023-01-19T03:50:23.567Z,51.185753
2023-01-19T03:51:23.618Z,51.185783
2023-01-19T03:52:23.588Z,51.185799
2023-01-19T03:53:23.545Z,51.185757
2023-01-19T03:54:23.557Z,51.185738
2023-01-19T03:55:23.529Z,51.185692
2023-01-19T03:56:23.543Z,51.185715
2023-01-19T03:57:23.548Z,51.185795
2023-01-19T03:58:23.553Z,51.185764
2023-01-19T03:59:23.537Z,51.185787
2023-01-19T04:00:23.532Z,51.185787
2023-01-19T04:01:23.727Z,51.185783
2023-01-19T04:02:23.600Z,51.185757
2023-01-19T04:03:23.544Z,51.185764
2023-01-19T04:04:23.496Z,51.185776
2023-01-19T04:05:23.540Z,51.185822
2023-01-19T04:06:23.469Z,51.185848
2023-01-19T04:07:23.471Z,51.185814
2023-01-19T04:08:23.496Z,51.185829
2023-01-19T04:09:23.475Z,51.185802
2023-01-19T04:10:23.639Z,51.185768
2023-01-19T04:11:23.487Z,51.185799
2023-01-19T04:12:23.446Z,51.185760
2023-01-19T04:13:23.456Z,51.185802
2023-01-19T04:14:23.437Z,51.185791
2023-01-19T04:15:23.438Z,51.185795
2023-01-19T04:16:23.457Z,51.185856
2023-01-19T04:17:23.441Z,51.185936
2023-01-19T04:18:23.420Z,51.185883
2023-01-19T04:19:23.529Z,51.185780
2023-01-19T04:20:23.389Z,51.185741
2023-01-19T04:21:23.425Z,51.185753
2023-01-19T04:22:23.382Z,51.185760
2023-01-19T04:23:23.416Z,51.185783
2023-01-19T04:24:23.385Z,51.185818
2023-01-19T04:25:23.516Z,51.185810
2023-01-19T04:26:23.388Z,51.185760
2023-01-19T04:27:23.372Z,51.185757
2023-01-19T04:28:23.458Z,51.185749
2023-01-19T04:29:23.378Z,51.185753
2023-01-19T04:30:23.355Z,51.185726
2023-01-19T04:31:23.473Z,51.185753
2023-01-19T04:32:23.337Z,51.185741
2023-01-19T04:33:23.339Z,51.185741
2023-01-19T04:34:23.312Z,51.185772
2023-01-19T04:35:23.339Z,51.185780
2023-01-19T04:36:23.331Z,51.185760
2023-01-19T04:37:23.311Z,51.185749
2023-01-19T04:38:23.298Z,51.185699
2023-01-19T04:39:23.300Z,51.185715
2023-01-19T04:40:23.275Z,51.185745
2023-01-19T04:41:23.309Z,51.185715
2023-01-19T04:42:23.277Z,51.185669
2023-01-19T04:43:23.276Z,51.185696
2023-01-19T04:44:23.264Z,51.185715
2023-01-19T04:45:23.268Z,51.185760
2023-01-19T04:46:23.319Z,51.185711
2023-01-19T04:47:23.273Z,51.185749
2023-01-19T04:48:23.223Z,51.185711
2023-01-19T04:49:23.236Z,51.185806
2023-01-19T04:50:23.230Z,51.185875
2023-01-19T04:51:23.268Z,51.185860
2023-01-19T04:52:23.216Z,51.185787
2023-01-19T04:53:23.234Z,51.185760
2023-01-19T04:54:23.258Z,51.185867
2023-01-19T04:55:23.199Z,51.185623
2023-01-19T04:56:23.195Z,51.185772
2023-01-19T04:57:23.186Z,51.185764
2023-01-19T04:58:23.202Z,51.185760
2023-01-19T04:59:23.185Z,51.185589
2023-01-19T05:00:23.167Z,51.185692
2023-01-19T05:01:23.331Z,51.185760
2023-01-19T05:02:23.143Z,51.185696
2023-01-19T05:03:24.950Z,51.185829
2023-01-19T05:04:23.205Z,51.185883
2023-01-19T05:05:23.157Z,51.185875
2023-01-19T05:06:23.138Z,51.185936
2023-01-19T05:07:23.156Z,51.185959
2023-01-19T05:08:23.134Z,51.185745
2023-01-19T05:09:23.147Z,51.185711
2023-01-19T05:10:23.112Z,51.185715
2023-01-19T05:11:23.121Z,51.185684
2023-01-19T05:12:23.103Z,51.185738
2023-01-19T05:13:23.123Z,51.185837
2023-01-19T05:14:23.090Z,51.185833
2023-01-19T05:15:23.116Z,51.185745
2023-01-19T05:16:23.084Z,51.185726
2023-01-19T05:17:23.163Z,51.185715
2023-01-19T05:18:23.082Z,51.185711
2023-01-19T05:19:23.105Z,51.185703
2023-01-19T05:20:23.053Z,51.185699
2023-01-19T05:21:23.081Z,51.185753
2023-01-19T05:22:23.052Z,51.185791
2023-01-19T05:23:23.064Z,51.185776
2023-01-19T05:24:23.051Z,51.185768
2023-01-19T05:25:23.156Z,51.185768
2023-01-19T05:26:23.025Z,51.185837
2023-01-19T05:27:23.081Z,51.185776
2023-01-19T05:28:23.007Z,51.185795
2023-01-19T05:29:23.031Z,51.185730
2023-01-19T05:30:22.994Z,51.185665
2023-01-19T05:31:23.106Z,51.185734
2023-01-19T05:32:22.989Z,51.185787
2023-01-19T05:33:22.989Z,51.185867
2023-01-19T05:34:22.984Z,51.185852
2023-01-19T05:35:35.309Z,51.185768
2023-01-19T05:36:24.051Z,51.185757
2023-01-19T05:37:22.952Z,51.185894
2023-01-19T05:38:34.334Z,51.185772
2023-01-19T05:39:24.006Z,51.185730
2023-01-19T05:40:22.936Z,51.185791
2023-01-19T05:41:22.950Z,51.185776
2023-01-19T05:42:22.967Z,51.185787
2023-01-19T05:43:22.914Z,51.185814
2023-01-19T05:44:22.979Z,51.185863
2023-01-19T05:45:22.898Z,51.185852
2023-01-19T05:46:22.953Z,51.185867
2023-01-19T05:47:22.916Z,51.185787
2023-01-19T05:48:22.880Z,51.185719
2023-01-19T05:49:22.921Z,51.185806
2023-01-19T05:50:22.879Z,51.185730
2023-01-19T05:51:22.871Z,51.185856
2023-01-19T05:52:22.855Z,51.185825
2023-01-19T05:53:22.859Z,51.185841
2023-01-19T05:54:22.830Z,51.185909
2023-01-19T05:55:22.894Z,51.185909
2023-01-19T05:56:22.832Z,51.185722
2023-01-19T05:57:22.816Z,51.185772
2023-01-19T05:58:22.822Z,51.185787
2023-01-19T05:59:22.831Z,51.185741
2023-01-19T06:00:22.812Z,51.185802
2023-01-19T06:01:22.867Z,51.185852
2023-01-19T06:02:22.854Z,51.185871
2023-01-19T06:03:22.807Z,51.185867
2023-01-19T06:04:22.776Z,51.185852
2023-01-19T06:05:22.819Z,51.185863
2023-01-19T06:06:22.826Z,51.185833
2023-01-19T06:07:24.386Z,51.185886
2023-01-19T06:08:22.742Z,51.185905
2023-01-19T06:09:22.739Z,51.185898
2023-01-19T06:10:22.746Z,51.185863
2023-01-19T06:11:22.814Z,51.185875
2023-01-19T06:12:22.717Z,51.185875
2023-01-19T06:13:22.742Z,51.185890
2023-01-19T06:14:22.716Z,51.185863
2023-01-19T06:15:22.734Z,51.185841
2023-01-19T06:16:22.748Z,51.185837
2023-01-19T06:17:22.697Z,51.185799
2023-01-19T06:18:22.714Z,51.185932
2023-01-19T06:19:22.740Z,51.185944
2023-01-19T06:20:22.682Z,51.185944
2023-01-19T06:21:22.717Z,51.185951
2023-01-19T06:22:22.752Z,51.185925
2023-01-19T06:23:22.720Z,51.185860
2023-01-19T06:24:22.689Z,51.185825
2023-01-19T06:25:22.630Z,51.185837
2023-01-19T06:26:22.646Z,51.185841
2023-01-19T06:27:22.732Z,51.185814
2023-01-19T06:28:22.662Z,51.185837
2023-01-19T06:29:22.627Z,51.185848
2023-01-19T06:30:22.703Z,51.185822
2023-01-19T06:31:22.783Z,51.185844
2023-01-19T06:32:22.614Z,51.185852
2023-01-19T06:33:22.598Z,51.185898
2023-01-19T06:34:22.629Z,51.185844
2023-01-19T06:35:22.690Z,51.185810
2023-01-19T06:36:22.618Z,51.185856
2023-01-19T06:37:22.751Z,51.185883
2023-01-19T06:38:22.588Z,51.185814
2023-01-19T06:39:22.603Z,51.185875
2023-01-19T06:40:22.580Z,51.185917
2023-01-19T06:41:22.561Z,51.185863
2023-01-19T06:42:22.600Z,51.185825
2023-01-19T06:43:22.560Z,51.185787
2023-01-19T06:44:22.560Z,51.185886
2023-01-19T06:45:22.521Z,51.185848
2023-01-19T06:46:22.518Z,51.185860
2023-01-19T06:47:22.506Z,51.185841
2023-01-19T06:48:22.484Z,51.185837
2023-01-19T06:49:22.488Z,51.185833
2023-01-19T06:50:22.504Z,51.185856
2023-01-19T06:51:22.465Z,51.185856
2023-01-19T06:52:22.478Z,51.185822
2023-01-19T06:53:22.482Z,51.185825
2023-01-19T06:54:22.482Z,51.185833
2023-01-19T06:55:22.458Z,51.185905
2023-01-19T06:56:22.460Z,51.185802
2023-01-19T06:57:22.426Z,51.186016
2023-01-19T06:58:22.442Z,51.185574
2023-01-19T06:59:22.452Z,51.185951
2023-01-19T07:00:22.628Z,51.185913
2023-01-19T07:01:22.588Z,51.185844
2023-01-19T07:02:27.833Z,51.185867
2023-01-19T07:03:23.502Z,51.185848
2023-01-19T07:04:22.375Z,51.185833
2023-01-19T07:05:22.395Z,51.185844
2023-01-19T07:06:22.374Z,51.185848
2023-01-19T07:07:22.417Z,51.185875
2023-01-19T07:08:22.394Z,51.185886
2023-01-19T07:09:22.437Z,51.185890
2023-01-19T07:10:22.363Z,51.185852
2023-01-19T07:11:30.201Z,51.185814
2023-01-19T07:12:23.400Z,51.185791
2023-01-19T07:13:22.359Z,51.185829
2023-01-19T07:14:22.334Z,51.185825
2023-01-19T07:15:22.362Z,51.185844
2023-01-19T07:16:22.390Z,51.185825
2023-01-19T07:17:22.335Z,51.185814
2023-01-19T07:18:22.318Z,51.185871
2023-01-19T07:19:22.302Z,51.185848
2023-01-19T07:20:22.291Z,51.185863
2023-01-19T07:21:22.292Z,51.185921
2023-01-19T07:22:22.262Z,51.185856
2023-01-19T07:23:22.294Z,51.185822
2023-01-19T07:24:22.267Z,51.185852
2023-01-19T07:25:22.334Z,51.185860
2023-01-19T07:26:22.284Z,51.185627
2023-01-19T07:27:22.250Z,51.185585
2023-01-19T07:28:22.252Z,51.185726
2023-01-19T07:29:22.233Z,51.185574
2023-01-19T07:30:22.220Z,51.185688
2023-01-19T07:31:22.529Z,51.185692
2023-01-19T07:32:22.229Z,51.185799
2023-01-19T07:33:22.228Z,51.185665
2023-01-19T07:34:22.230Z,51.185719
2023-01-19T07:35:22.200Z,51.185848
2023-01-19T07:36:22.209Z,51.185795
2023-01-19T07:37:22.195Z,51.185833
2023-01-19T07:38:22.170Z,51.185734
2023-01-19T07:39:22.225Z,51.185623
2023-01-19T07:40:23.933Z,51.185894
2023-01-19T07:41:22.167Z,51.185898
2023-01-19T07:42:22.156Z,51.185902
2023-01-19T07:43:22.143Z,51.185848
2023-01-19T07:44:22.164Z,51.185936
2023-01-19T07:45:22.156Z,51.185871
2023-01-19T07:46:22.221Z,51.185833
2023-01-19T07:47:22.153Z,51.185860
2023-01-19T07:48:22.138Z,51.185783
2023-01-19T07:49:22.113Z,51.185787
2023-01-19T07:50:22.112Z,51.185848
2023-01-19T07:51:22.122Z,51.185841
2023-01-19T07:52:22.074Z,51.185871
2023-01-19T07:53:22.089Z,51.185844
2023-01-19T07:54:22.073Z,51.185837
2023-01-19T07:55:22.065Z,51.185932
2023-01-19T07:56:22.069Z,51.185795
2023-01-19T07:57:22.073Z,51.185795
2023-01-19T07:58:22.040Z,51.185768
2023-01-19T07:59:22.047Z,51.185806
2023-01-19T08:00:22.051Z,51.185837
2023-01-19T08:01:22.154Z,51.185856
2023-01-19T08:02:22.164Z,51.185863
2023-01-19T08:03:22.098Z,51.185822
2023-01-19T08:04:22.174Z,51.185822
2023-01-19T08:05:22.013Z,51.185818
2023-01-19T08:06:21.990Z,51.185806
2023-01-19T08:07:21.991Z,51.185776
2023-01-19T08:08:21.989Z,51.185741
2023-01-19T08:09:21.961Z,51.185822
2023-01-19T08:10:21.948Z,51.185776
2023-01-19T08:11:21.979Z,51.185776
2023-01-19T08:12:21.935Z,51.185699
2023-01-19T08:13:21.988Z,51.185753
2023-01-19T08:14:21.967Z,51.185768
2023-01-19T08:15:21.924Z,51.185810
2023-01-19T08:16:21.928Z,51.185783
2023-01-19T08:17:21.942Z,51.185799
2023-01-19T08:18:21.926Z,51.185810
2023-01-19T08:19:21.923Z,51.185795
2023-01-19T08:20:21.892Z,51.185814
2023-01-19T08:21:21.892Z,51.185764
2023-01-19T08:22:21.897Z,51.185810
2023-01-19T08:23:21.906Z,51.185787
2023-01-19T08:24:21.898Z,51.185810
2023-01-19T08:25:21.874Z,51.185787
2023-01-19T08:26:21.871Z,51.185822
2023-01-19T08:27:21.845Z,51.185783
2023-01-19T08:28:21.858Z,51.185787
2023-01-19T08:29:21.837Z,51.185787
2023-01-19T08:30:21.816Z,51.185783
2023-01-19T08:31:24.744Z,51.185776
2023-01-19T08:32:21.862Z,51.185810
2023-01-19T08:33:21.828Z,51.185825
2023-01-19T08:34:21.800Z,51.185806
2023-01-19T08:35:21.808Z,51.185802
2023-01-19T08:36:21.801Z,51.185810
2023-01-19T08:37:21.803Z,51.185814
2023-01-19T08:38:21.784Z,51.185787
2023-01-19T08:39:21.777Z,51.185772
2023-01-19T08:40:21.761Z,51.185780
2023-01-19T08:41:21.768Z,51.185783
2023-01-19T08:42:21.863Z,51.185799
2023-01-19T08:43:21.759Z,51.185810
2023-01-19T08:44:21.741Z,51.185776
2023-01-19T08:45:21.762Z,51.185776
2023-01-19T08:46:21.839Z,51.185749
2023-01-19T08:47:21.811Z,51.185760
2023-01-19T08:48:21.703Z,51.185738
2023-01-19T08:49:21.706Z,51.185772
2023-01-19T08:50:21.680Z,51.185760
2023-01-19T08:51:21.727Z,51.185802
2023-01-19T08:52:21.662Z,51.185810
2023-01-19T08:53:21.790Z,51.185894
2023-01-19T08:54:21.668Z,51.185856
2023-01-19T08:55:21.670Z,51.185825
2023-01-19T08:56:21.661Z,51.185841
2023-01-19T08:57:21.650Z,51.185783
2023-01-19T08:58:21.624Z,51.185753
2023-01-19T08:59:21.647Z,51.185753
2023-01-19T09:00:21.616Z,51.185726
2023-01-19T09:01:21.761Z,51.185684
2023-01-19T09:02:21.815Z,51.185799
2023-01-19T09:03:21.709Z,51.185734
2023-01-19T09:04:21.583Z,51.185734
2023-01-19T09:05:21.610Z,51.185856
2023-01-19T09:06:21.590Z,51.185848
2023-01-19T09:07:21.778Z,51.185883
2023-01-19T09:08:21.568Z,51.185867
2023-01-19T09:09:21.577Z,51.185791
2023-01-19T09:10:21.696Z,51.185818
2023-01-19T09:11:21.555Z,51.185799
2023-01-19T09:12:21.545Z,51.185795
2023-01-19T09:13:21.546Z,51.185818
2023-01-19T09:14:21.574Z,51.185787
2023-01-19T09:15:21.620Z,51.185783
2023-01-19T09:16:21.606Z,51.185772
2023-01-19T09:17:21.498Z,51.185707
2023-01-19T09:18:21.510Z,51.185684
2023-01-19T09:19:21.524Z,51.185738
2023-01-19T09:20:21.617Z,51.185734
2023-01-19T09:21:21.503Z,51.185734
2023-01-19T09:22:21.501Z,51.185669
2023-01-19T09:23:21.509Z,51.185745
2023-01-19T09:24:21.446Z,51.185757
2023-01-19T09:25:21.459Z,51.185856
2023-01-19T09:26:21.482Z,51.185841
2023-01-19T09:27:21.448Z,51.185822
2023-01-19T09:28:21.439Z,51.185890
2023-01-19T09:29:21.419Z,51.185833
2023-01-19T09:30:21.427Z,51.185780
2023-01-19T09:31:21.646Z,51.185780
2023-01-19T09:32:21.407Z,51.185707
2023-01-19T09:33:21.407Z,51.185741
2023-01-19T09:34:21.389Z,51.185669
2023-01-19T09:35:21.380Z,51.185734
2023-01-19T09:36:21.373Z,51.185825
2023-01-19T09:37:21.377Z,51.185673
2023-01-19T09:38:21.374Z,51.185879
2023-01-19T09:39:21.401Z,51.185734
2023-01-19T09:40:21.360Z,51.185886
2023-01-19T09:41:21.359Z,51.185925
2023-01-19T09:42:21.333Z,51.185909
2023-01-19T09:43:21.331Z,51.185917
2023-01-19T09:44:21.357Z,51.185902
2023-01-19T09:45:21.314Z,51.185993
2023-01-19T09:46:21.320Z,51.186131
2023-01-19T09:47:21.316Z,51.186180
2023-01-19T09:48:21.272Z,51.186245
2023-01-19T09:49:21.293Z,51.186169
2023-01-19T09:50:21.310Z,51.185989
2023-01-19T09:51:21.269Z,51.186184
2023-01-19T09:52:21.257Z,51.185925
2023-01-19T09:53:21.271Z,51.185814
2023-01-19T09:54:21.256Z,51.185776
2023-01-19T09:55:21.262Z,51.185585
2023-01-19T09:56:21.233Z,51.185787
2023-01-19T09:57:21.224Z,51.185760
2023-01-19T09:58:21.207Z,51.185757
2023-01-19T09:59:21.235Z,51.185833
2023-01-19T10:00:21.214Z,51.185730
2023-01-19T10:01:21.314Z,51.185760
2023-01-19T10:02:21.298Z,51.185772
2023-01-19T10:03:21.230Z,51.185841
2023-01-19T10:04:21.191Z,51.185791
2023-01-19T10:05:21.174Z,51.185829
2023-01-19T10:06:21.169Z,51.185802
2023-01-19T10:07:21.169Z,51.185833
2023-01-19T10:08:21.148Z,51.185841
2023-01-19T10:09:21.125Z,51.185810
2023-01-19T10:10:21.158Z,51.185802
2023-01-19T10:11:21.143Z,51.185757
2023-01-19T10:12:21.124Z,51.185734
2023-01-19T10:13:21.141Z,51.185776
2023-01-19T10:14:21.109Z,51.185841
2023-01-19T10:15:21.133Z,51.185860
2023-01-19T10:16:21.135Z,51.185825
2023-01-19T10:17:21.075Z,51.185810
2023-01-19T10:18:21.114Z,51.185806
2023-01-19T10:19:21.078Z,51.185841
2023-01-19T10:20:21.091Z,51.185818
2023-01-19T10:21:21.073Z,51.185814
2023-01-19T10:22:21.070Z,51.185867
2023-01-19T10:23:21.035Z,51.185879
2023-01-19T10:24:21.055Z,51.185837
2023-01-19T10:25:21.163Z,51.185829
2023-01-19T10:26:21.297Z,51.185818
2023-01-19T10:27:21.056Z,51.185822
2023-01-19T10:28:21.005Z,51.185875
2023-01-19T10:29:21.019Z,51.185837
2023-01-19T10:30:21.094Z,51.185825
2023-01-19T10:31:21.078Z,51.185837
2023-01-19T10:32:21.008Z,51.185837
2023-01-19T10:33:21.070Z,51.185802
2023-01-19T10:34:23.567Z,51.185783
2023-01-19T10:35:21.061Z,51.185772
2023-01-19T10:36:20.959Z,51.185783
2023-01-19T10:37:20.983Z,51.185802
2023-01-19T10:38:20.996Z,51.185814
2023-01-19T10:39:20.987Z,51.185810
2023-01-19T10:40:20.940Z,51.185837
2023-01-19T10:41:20.917Z,51.185822
2023-01-19T10:42:20.968Z,51.185825
2023-01-19T10:43:20.930Z,51.185780
2023-01-19T10:44:20.923Z,51.185768
2023-01-19T10:45:20.979Z,51.185814
2023-01-19T10:46:20.980Z,51.185810
2023-01-19T10:47:20.944Z,51.185818
2023-01-19T10:48:20.905Z,51.185825
2023-01-19T10:49:20.875Z,51.185822
2023-01-19T10:50:20.876Z,51.185814
2023-01-19T10:51:20.877Z,51.185795
2023-01-19T10:52:20.884Z,51.185825
2023-01-19T10:53:20.898Z,51.185829
2023-01-19T10:54:20.805Z,51.185837
2023-01-19T10:55:20.846Z,51.185799
2023-01-19T10:56:20.844Z,51.185799
2023-01-19T10:57:20.809Z,51.185814
2023-01-19T10:58:20.817Z,51.185818
2023-01-19T10:59:20.847Z,51.185818
2023-01-19T11:00:20.763Z,51.185787
2023-01-19T11:01:20.854Z,51.185787
2023-01-19T11:02:21.049Z,51.185799
2023-01-19T11:03:20.870Z,51.185810
2023-01-19T11:04:20.797Z,51.185852
2023-01-19T11:05:20.756Z,51.185841
2023-01-19T11:06:20.725Z,51.185818
2023-01-19T11:07:20.771Z,51.185802
2023-01-19T11:08:20.703Z,51.185806
2023-01-19T11:09:20.725Z,51.185802
2023-01-19T11:10:20.724Z,51.185787
2023-01-19T11:11:20.720Z,51.185802
2023-01-19T11:12:20.679Z,51.185799
2023-01-19T11:13:20.690Z,51.185825
2023-01-19T11:14:20.716Z,51.185837
2023-01-19T11:15:20.700Z,51.185818
2023-01-19T11:16:20.714Z,51.185833
2023-01-19T11:17:20.666Z,51.185799
2023-01-19T11:18:20.643Z,51.185863
2023-01-19T11:19:20.659Z,51.185841
2023-01-19T11:20:20.658Z,51.185822
2023-01-19T11:21:20.650Z,51.185848
2023-01-19T11:22:20.635Z,51.185818
2023-01-19T11:23:20.630Z,51.185818
2023-01-19T11:24:20.612Z,51.185802